Creek Data

    Home     View Charts     View Raw Data     Messages

ID Distance Battery Voltage Battery Current Internal Temp Internal Humidity External Temp Solar Input rssi snr Time Stamp Record
33565 14.8 4.02 8 51 36 55 5.1 -71 7 02/27/2025 08:30 AM 15259
33564 14.8 3.94 5 50 36 53 5.1 -71 8 02/27/2025 08:15 AM 15258
33563 14.8 3.95 0 49 36 52 5.1 -71 7 02/27/2025 08:00 AM 15257
33562 14.8 4.11 95 48 36 51 4.5 -72 7 02/27/2025 07:45 AM 15256
33561 14.7 4.01 25 46 37 48 4.5 -71 7 02/27/2025 07:30 AM 15255
33560 14.8 3.96 25 45 37 47 4.5 -72 8 02/27/2025 07:15 AM 15254
33559 14.8 3.96 0 44 38 46 4.5 -72 8 02/27/2025 07:00 AM 15253
33558 14.8 3.86 -7 44 37 45 4.5 -71 8 02/27/2025 06:45 AM 15252
33557 14.8 3.86 -9 44 38 45 3.2 -72 8 02/27/2025 06:30 AM 15251
33556 14.7 3.87 -5 44 38 45 0.1 -71 8 02/27/2025 06:15 AM 15250
33555 14.7 3.87 -5 43 38 45 0 -72 6 02/27/2025 06:00 AM 15249
33554 14.7 3.87 -5 44 38 46 0 -72 7 02/27/2025 05:45 AM 15248
33553 14.7 3.87 -5 44 38 44 0 -71 8 02/27/2025 05:30 AM 15247
33552 14.7 3.87 -5 45 38 47 0 -72 8 02/27/2025 05:15 AM 15246
33551 14.7 3.87 -5 45 38 47 0 -71 8 02/27/2025 05:00 AM 15245
33550 14.7 3.87 -5 45 38 47 0 -71 8 02/27/2025 04:45 AM 15244
33549 14.7 3.87 -5 45 38 48 0 -71 7 02/27/2025 04:30 AM 15243
33548 14.7 3.87 -5 46 38 48 0.1 -71 8 02/27/2025 04:15 AM 15242
33547 14.7 3.87 -5 45 38 48 0.1 -71 8 02/27/2025 04:00 AM 15241
33546 14.7 3.87 -5 46 38 47 0 -70 8 02/27/2025 03:45 AM 15240
33545 14.7 3.87 -34 46 37 48 0 -71 9 02/27/2025 03:30 AM 15239
33544 14.7 3.93 -5 46 38 49 0.1 -70 8 02/27/2025 03:15 AM 15238
33543 14.7 3.93 -5 45 38 47 0.1 -70 7 02/27/2025 03:00 AM 15237
33542 14.7 3.88 -34 45 38 46 0 -70 8 02/27/2025 02:45 AM 15236
33541 14.7 3.88 -5 45 38 47 0 -71 8 02/27/2025 02:30 AM 15235